sensor_id;sensor_type;location;lat;lon;timestamp;pressure;altitude;pressure_sealevel;temperature;humidity
39405;BME280;25121;51.090;17.038;2023-04-06T00:01:13;100584.38;;;2.39;63.54
39405;BME280;25121;51.090;17.038;2023-04-06T00:02:38;100571.66;;;2.31;63.42
39405;BME280;25121;51.090;17.038;2023-04-06T00:04:03;100578.13;;;2.27;63.43
39405;BME280;25121;51.090;17.038;2023-04-06T00:07:51;100583.34;;;2.29;63.47
39405;BME280;25121;51.090;17.038;2023-04-06T00:09:30;100573.16;;;2.23;63.57
39405;BME280;25121;51.090;17.038;2023-04-06T00:11:03;100588.63;;;2.29;63.55
39405;BME280;25121;51.090;17.038;2023-04-06T00:12:30;100574.22;;;2.20;63.81
39405;BME280;25121;51.090;17.038;2023-04-06T00:13:57;100592.13;;;2.29;63.92
39405;BME280;25121;51.090;17.038;2023-04-06T00:15:26;100576.78;;;2.22;64.08
39405;BME280;25121;51.090;17.038;2023-04-06T00:16:51;100582.06;;;2.22;63.79
39405;BME280;25121;51.090;17.038;2023-04-06T00:18:12;100589.81;;;2.25;63.91
39405;BME280;25121;51.090;17.038;2023-04-06T00:19:35;100587.25;;;2.23;64.13
39405;BME280;25121;51.090;17.038;2023-04-06T00:20:57;100581.44;;;2.18;63.99
39405;BME280;25121;51.090;17.038;2023-04-06T00:22:26;100582.28;;;2.19;64.00
39405;BME280;25121;51.090;17.038;2023-04-06T00:23:47;100583.25;;;2.18;64.11
39405;BME280;25121;51.090;17.038;2023-04-06T00:25:14;100587.56;;;2.19;64.08
39405;BME280;25121;51.090;17.038;2023-04-06T00:26:37;100585.66;;;2.21;64.15
39405;BME280;25121;51.090;17.038;2023-04-06T00:28:20;100572.22;;;2.11;64.29
39405;BME280;25121;51.090;17.038;2023-04-06T00:29:51;100583.88;;;2.21;64.15
39405;BME280;25121;51.090;17.038;2023-04-06T00:31:14;100583.34;;;2.16;64.10
39405;BME280;25121;51.090;17.038;2023-04-06T00:32:40;100584.53;;;2.12;63.96
39405;BME280;25121;51.090;17.038;2023-04-06T00:34:08;100585.16;;;2.15;63.91
39405;BME280;25121;51.090;17.038;2023-04-06T00:35:30;100575.84;;;2.10;64.13
39405;BME280;25121;51.090;17.038;2023-04-06T00:36:52;100587.94;;;2.14;64.11
39405;BME280;25121;51.090;17.038;2023-04-06T00:38:14;100576.59;;;2.12;64.21
39405;BME280;25121;51.090;17.038;2023-04-06T00:39:37;100571.91;;;2.03;64.24
39405;BME280;25121;51.090;17.038;2023-04-06T00:41:04;100567.28;;;2.06;64.22
39405;BME280;25121;51.090;17.038;2023-04-06T00:42:27;100583.78;;;2.10;64.41
39405;BME280;25121;51.090;17.038;2023-04-06T00:43:48;100582.94;;;2.09;64.44
39405;BME280;25121;51.090;17.038;2023-04-06T00:45:14;100573.28;;;2.08;64.48
39405;BME280;25121;51.090;17.038;2023-04-06T00:46:38;100576.06;;;2.07;64.39
39405;BME280;25121;51.090;17.038;2023-04-06T00:48:00;100575.41;;;2.03;64.46
39405;BME280;25121;51.090;17.038;2023-04-06T00:49:32;100578.19;;;2.02;64.58
39405;BME280;25121;51.090;17.038;2023-04-06T00:50:53;100590.25;;;2.06;64.43
39405;BME280;25121;51.090;17.038;2023-04-06T00:52:18;100575.53;;;2.02;64.23
39405;BME280;25121;51.090;17.038;2023-04-06T00:53:40;100561.13;;;1.93;64.31
39405;BME280;25121;51.090;17.038;2023-04-06T00:55:05;100583.38;;;2.03;64.25
39405;BME280;25121;51.090;17.038;2023-04-06T00:56:35;100573.97;;;1.99;64.43
39405;BME280;25121;51.090;17.038;2023-04-06T00:57:58;100554.34;;;1.89;64.60
39405;BME280;25121;51.090;17.038;2023-04-06T00:59:23;100580.31;;;1.97;64.63
39405;BME280;25121;51.090;17.038;2023-04-06T01:00:47;100582.31;;;1.93;64.75
39405;BME280;25121;51.090;17.038;2023-04-06T01:02:14;100574.50;;;1.91;64.80
39405;BME280;25121;51.090;17.038;2023-04-06T01:03:42;100579.81;;;1.91;64.87
39405;BME280;25121;51.090;17.038;2023-04-06T01:05:08;100584.97;;;1.93;65.03
39405;BME280;25121;51.090;17.038;2023-04-06T01:06:45;100577.34;;;1.88;65.02
39405;BME280;25121;51.090;17.038;2023-04-06T01:08:07;100583.50;;;1.89;64.90
39405;BME280;25121;51.090;17.038;2023-04-06T01:09:33;100581.94;;;1.86;64.87
39405;BME280;25121;51.090;17.038;2023-04-06T01:10:59;100564.84;;;1.78;64.86
39405;BME280;25121;51.090;17.038;2023-04-06T01:12:23;100582.97;;;1.84;64.95
39405;BME280;25121;51.090;17.038;2023-04-06T01:13:46;100581.28;;;1.83;65.16
39405;BME280;25121;51.090;17.038;2023-04-06T01:15:18;100569.41;;;1.76;65.18
39405;BME280;25121;51.090;17.038;2023-04-06T01:16:44;100578.72;;;1.81;65.15
39405;BME280;25121;51.090;17.038;2023-04-06T01:18:10;100577.25;;;1.77;65.31
39405;BME280;25121;51.090;17.038;2023-04-06T01:19:40;100573.97;;;1.73;65.25
39405;BME280;25121;51.090;17.038;2023-04-06T01:21:10;100579.91;;;1.77;65.25
39405;BME280;25121;51.090;17.038;2023-04-06T01:23:05;100570.03;;;1.66;65.28
39405;BME280;25121;51.090;17.038;2023-04-06T01:24:30;100577.56;;;1.72;65.38
39405;BME280;25121;51.090;17.038;2023-04-06T01:26:10;100586.38;;;1.73;65.49
39405;BME280;25121;51.090;17.038;2023-04-06T01:27:35;100582.97;;;1.71;65.56
39405;BME280;25121;51.090;17.038;2023-04-06T01:29:15;100565.94;;;1.62;65.45
39405;BME280;25121;51.090;17.038;2023-04-06T01:30:37;100588.28;;;1.71;65.61
39405;BME280;25121;51.090;17.038;2023-04-06T01:32:07;100589.16;;;1.71;65.76
39405;BME280;25121;51.090;17.038;2023-04-06T01:33:38;100580.53;;;1.68;65.73
39405;BME280;25121;51.090;17.038;2023-04-06T01:35:05;100580.53;;;1.68;65.66
39405;BME280;25121;51.090;17.038;2023-04-06T01:36:33;100571.22;;;1.62;65.71
39405;BME280;25121;51.090;17.038;2023-04-06T01:38:14;100570.25;;;1.63;65.62
39405;BME280;25121;51.090;17.038;2023-04-06T01:39:37;100564.34;;;1.60;65.60
39405;BME280;25121;51.090;17.038;2023-04-06T01:41:02;100569.19;;;1.66;66.02
39405;BME280;25121;51.090;17.038;2023-04-06T01:42:37;100572.06;;;1.63;65.82
39405;BME280;25121;51.090;17.038;2023-04-06T01:44:01;100571.97;;;1.64;65.75
39405;BME280;25121;51.090;17.038;2023-04-06T01:45:24;100564.97;;;1.63;65.82
39405;BME280;25121;51.090;17.038;2023-04-06T01:46:53;100558.19;;;1.59;66.02
39405;BME280;25121;51.090;17.038;2023-04-06T01:48:29;100565.19;;;1.60;65.90
39405;BME280;25121;51.090;17.038;2023-04-06T01:50:25;100560.94;;;1.58;65.85
39405;BME280;25121;51.090;17.038;2023-04-06T01:51:48;100564.13;;;1.63;65.95
39405;BME280;25121;51.090;17.038;2023-04-06T01:53:12;100567.91;;;1.59;65.85
39405;BME280;25121;51.090;17.038;2023-04-06T01:54:35;100576.41;;;1.64;66.07
39405;BME280;25121;51.090;17.038;2023-04-06T01:56:16;100575.56;;;1.63;65.91
39405;BME280;25121;51.090;17.038;2023-04-06T01:57:47;100559.25;;;1.57;65.93
39405;BME280;25121;51.090;17.038;2023-04-06T01:59:26;100578.94;;;1.65;66.08
39405;BME280;25121;51.090;17.038;2023-04-06T02:00:49;100574.63;;;1.64;65.92
39405;BME280;25121;51.090;17.038;2023-04-06T02:02:11;100582.56;;;1.64;65.89
39405;BME280;25121;51.090;17.038;2023-04-06T02:04:02;100565.81;;;1.51;65.98
39405;BME280;25121;51.090;17.038;2023-04-06T02:05:29;100579.16;;;1.62;65.96
39405;BME280;25121;51.090;17.038;2023-04-06T02:07:09;100566.47;;;1.55;65.83
39405;BME280;25121;51.090;17.038;2023-04-06T02:08:33;100568.88;;;1.58;65.80
39405;BME280;25121;51.090;17.038;2023-04-06T02:09:55;100573.13;;;1.60;65.92
39405;BME280;25121;51.090;17.038;2023-04-06T02:11:26;100575.78;;;1.60;65.98
39405;BME280;25121;51.090;17.038;2023-04-06T02:12:49;100574.09;;;1.59;65.81
39405;BME280;25121;51.090;17.038;2023-04-06T02:14:18;100574.94;;;1.60;66.02
39405;BME280;25121;51.090;17.038;2023-04-06T02:16:11;100552.03;;;1.46;66.17
39405;BME280;25121;51.090;17.038;2023-04-06T02:18:14;100564.13;;;1.50;65.88
39405;BME280;25121;51.090;17.038;2023-04-06T02:22:41;100555.97;;;1.40;65.79
39405;BME280;25121;51.090;17.038;2023-04-06T02:24:29;100567.91;;;1.46;66.00
39405;BME280;25121;51.090;17.038;2023-04-06T02:26:10;100568.75;;;1.46;65.88
39405;BME280;25121;51.090;17.038;2023-04-06T02:29:39;100551.81;;;1.36;65.95
39405;BME280;25121;51.090;17.038;2023-04-06T02:31:09;100557.22;;;1.35;66.13
39405;BME280;25121;51.090;17.038;2023-04-06T02:32:33;100561.56;;;1.36;66.07
39405;BME280;25121;51.090;17.038;2023-04-06T02:33:56;100564.66;;;1.42;66.26
39405;BME280;25121;51.090;17.038;2023-04-06T02:35:59;100576.84;;;1.45;66.13
39405;BME280;25121;51.090;17.038;2023-04-06T02:37:22;100575.03;;;1.45;66.22
39405;BME280;25121;51.090;17.038;2023-04-06T02:38:46;100569.94;;;1.42;66.28
39405;BME280;25121;51.090;17.038;2023-04-06T02:40:10;100565.59;;;1.41;66.05
39405;BME280;25121;51.090;17.038;2023-04-06T02:41:32;100570.69;;;1.44;66.45
39405;BME280;25121;51.090;17.038;2023-04-06T02:42:56;100565.81;;;1.38;66.40
39405;BME280;25121;51.090;17.038;2023-04-06T02:44:26;100573.22;;;1.46;66.29
39405;BME280;25121;51.090;17.038;2023-04-06T02:45:49;100570.88;;;1.41;66.22
39405;BME280;25121;51.090;17.038;2023-04-06T02:47:15;100583.94;;;1.44;66.30
39405;BME280;25121;51.090;17.038;2023-04-06T02:48:42;100578.81;;;1.41;66.53
39405;BME280;25121;51.090;17.038;2023-04-06T02:50:05;100582.13;;;1.45;66.28
39405;BME280;25121;51.090;17.038;2023-04-06T02:51:33;100576.94;;;1.43;66.34
39405;BME280;25121;51.090;17.038;2023-04-06T02:53:19;100576.31;;;1.40;66.16
39405;BME280;25121;51.090;17.038;2023-04-06T02:54:42;100582.34;;;1.42;66.15
39405;BME280;25121;51.090;17.038;2023-04-06T02:56:07;100569.41;;;1.37;66.38
39405;BME280;25121;51.090;17.038;2023-04-06T02:57:40;100581.69;;;1.38;66.59
39405;BME280;25121;51.090;17.038;2023-04-06T02:59:03;100578.09;;;1.39;66.17
39405;BME280;25121;51.090;17.038;2023-04-06T03:00:26;100577.53;;;1.34;66.76
39405;BME280;25121;51.090;17.038;2023-04-06T03:01:49;100578.28;;;1.36;66.24
39405;BME280;25121;51.090;17.038;2023-04-06T03:03:10;100583.50;;;1.38;66.41
39405;BME280;25121;51.090;17.038;2023-04-06T03:04:35;100575.88;;;1.33;66.34
39405;BME280;25121;51.090;17.038;2023-04-06T03:06:03;100584.25;;;1.40;66.43
39405;BME280;25121;51.090;17.038;2023-04-06T03:07:26;100582.13;;;1.32;66.26
39405;BME280;25121;51.090;17.038;2023-04-06T03:08:48;100587.00;;;1.38;66.43
39405;BME280;25121;51.090;17.038;2023-04-06T03:10:11;100584.56;;;1.35;66.28
39405;BME280;25121;51.090;17.038;2023-04-06T03:11:34;100581.06;;;1.35;66.70
39405;BME280;25121;51.090;17.038;2023-04-06T03:12:56;100588.03;;;1.36;66.32
39405;BME280;25121;51.090;17.038;2023-04-06T03:14:35;100594.94;;;1.38;66.42
39405;BME280;25121;51.090;17.038;2023-04-06T03:15:58;100597.78;;;1.35;66.67
39405;BME280;25121;51.090;17.038;2023-04-06T03:17:22;100590.06;;;1.32;66.47
39405;BME280;25121;51.090;17.038;2023-04-06T03:18:46;100589.09;;;1.33;66.70
39405;BME280;25121;51.090;17.038;2023-04-06T03:20:10;100592.50;;;1.35;66.52
39405;BME280;25121;51.090;17.038;2023-04-06T03:21:33;100587.50;;;1.31;66.46
39405;BME280;25121;51.090;17.038;2023-04-06T03:22:55;100591.00;;;1.31;66.69
39405;BME280;25121;51.090;17.038;2023-04-06T03:24:22;100592.28;;;1.25;66.52
39405;BME280;25121;51.090;17.038;2023-04-06T03:25:44;100602.25;;;1.35;66.49
39405;BME280;25121;51.090;17.038;2023-04-06T03:27:11;100599.78;;;1.32;66.67
39405;BME280;25121;51.090;17.038;2023-04-06T03:28:34;100595.88;;;1.24;66.64
39405;BME280;25121;51.090;17.038;2023-04-06T03:30:08;100592.50;;;1.22;66.54
39405;BME280;25121;51.090;17.038;2023-04-06T03:31:37;100595.13;;;1.22;66.71
39405;BME280;25121;51.090;17.038;2023-04-06T03:33:02;100604.75;;;1.23;66.63
39405;BME280;25121;51.090;17.038;2023-04-06T03:34:29;100602.78;;;1.27;66.77
39405;BME280;25121;51.090;17.038;2023-04-06T03:35:51;100616.00;;;1.27;66.78
39405;BME280;25121;51.090;17.038;2023-04-06T03:37:15;100611.56;;;1.27;66.82
39405;BME280;25121;51.090;17.038;2023-04-06T03:38:44;100598.63;;;1.23;66.54
39405;BME280;25121;51.090;17.038;2023-04-06T03:40:07;100608.06;;;1.27;66.78
39405;BME280;25121;51.090;17.038;2023-04-06T03:41:30;100602.09;;;1.23;66.68
39405;BME280;25121;51.090;17.038;2023-04-06T03:43:04;100612.31;;;1.29;66.54
39405;BME280;25121;51.090;17.038;2023-04-06T03:44:29;100616.94;;;1.26;66.79
39405;BME280;25121;51.090;17.038;2023-04-06T03:45:53;100613.53;;;1.24;66.86
39405;BME280;25121;51.090;17.038;2023-04-06T03:47:18;100609.13;;;1.24;66.37
39405;BME280;25121;51.090;17.038;2023-04-06T03:48:40;100623.84;;;1.28;66.65
39405;BME280;25121;51.090;17.038;2023-04-06T03:50:02;100611.09;;;1.21;66.47
39405;BME280;25121;51.090;17.038;2023-04-06T03:51:27;100619.38;;;1.29;66.42
39405;BME280;25121;51.090;17.038;2023-04-06T03:52:58;100616.94;;;1.26;66.55
39405;BME280;25121;51.090;17.038;2023-04-06T03:54:21;100612.50;;;1.26;66.16
39405;BME280;25121;51.090;17.038;2023-04-06T03:55:43;100621.31;;;1.27;66.51
39405;BME280;25121;51.090;17.038;2023-04-06T03:57:04;100611.03;;;1.22;66.02
39405;BME280;25121;51.090;17.038;2023-04-06T03:58:28;100610.25;;;1.20;66.45
39405;BME280;25121;51.090;17.038;2023-04-06T03:59:49;100611.94;;;1.21;66.58
39405;BME280;25121;51.090;17.038;2023-04-06T04:01:11;100609.72;;;1.15;66.43
39405;BME280;25121;51.090;17.038;2023-04-06T04:02:32;100611.53;;;1.15;66.45
39405;BME280;25121;51.090;17.038;2023-04-06T04:03:55;100632.06;;;1.24;66.32
39405;BME280;25121;51.090;17.038;2023-04-06T04:05:17;100614.81;;;1.18;66.31
39405;BME280;25121;51.090;17.038;2023-04-06T04:06:39;100624.47;;;1.19;66.71
39405;BME280;25121;51.090;17.038;2023-04-06T04:08:01;100631.34;;;1.22;66.35
39405;BME280;25121;51.090;17.038;2023-04-06T04:09:24;100623.50;;;1.20;66.38
39405;BME280;25121;51.090;17.038;2023-04-06T04:10:49;100609.72;;;1.15;66.15
39405;BME280;25121;51.090;17.038;2023-04-06T04:12:10;100626.16;;;1.20;66.16
39405;BME280;25121;51.090;17.038;2023-04-06T04:13:34;100628.81;;;1.20;66.36
39405;BME280;25121;51.090;17.038;2023-04-06T04:14:57;100616.53;;;1.19;66.46
39405;BME280;25121;51.090;17.038;2023-04-06T04:16:19;100628.06;;;1.18;66.22
39405;BME280;25121;51.090;17.038;2023-04-06T04:17:41;100617.47;;;1.18;66.27
39405;BME280;25121;51.090;17.038;2023-04-06T04:19:07;100628.06;;;1.18;66.21
39405;BME280;25121;51.090;17.038;2023-04-06T04:20:30;100627.97;;;1.20;66.44
39405;BME280;25121;51.090;17.038;2023-04-06T04:21:53;100628.88;;;1.19;66.15
39405;BME280;25121;51.090;17.038;2023-04-06T04:23:23;100633.25;;;1.20;66.33
39405;BME280;25121;51.090;17.038;2023-04-06T04:24:46;100626.25;;;1.19;66.21
39405;BME280;25121;51.090;17.038;2023-04-06T04:26:08;100626.16;;;1.20;66.21
39405;BME280;25121;51.090;17.038;2023-04-06T04:27:29;100625.31;;;1.20;66.26
39405;BME280;25121;51.090;17.038;2023-04-06T04:28:53;100627.84;;;1.21;66.02
39405;BME280;25121;51.090;17.038;2023-04-06T04:30:16;100626.16;;;1.20;66.21
39405;BME280;25121;51.090;17.038;2023-04-06T04:31:39;100635.78;;;1.21;66.28
39405;BME280;25121;51.090;17.038;2023-04-06T04:33:08;100625.19;;;1.21;66.13
39405;BME280;25121;51.090;17.038;2023-04-06T04:34:31;100627.97;;;1.20;66.17
39405;BME280;25121;51.090;17.038;2023-04-06T04:35:53;100621.69;;;1.21;66.24
39405;BME280;25121;51.090;17.038;2023-04-06T04:37:19;100623.28;;;1.23;66.29
39405;BME280;25121;51.090;17.038;2023-04-06T04:38:46;100629.44;;;1.24;66.27
39405;BME280;25121;51.090;17.038;2023-04-06T04:40:09;100625.72;;;1.26;65.93
39405;BME280;25121;51.090;17.038;2023-04-06T04:41:48;100615.13;;;1.26;65.86
39405;BME280;25121;51.090;17.038;2023-04-06T04:43:10;100617.59;;;1.29;66.23
39405;BME280;25121;51.090;17.038;2023-04-06T04:44:33;100617.47;;;1.31;66.18
39405;BME280;25121;51.090;17.038;2023-04-06T04:45:56;100627.00;;;1.34;66.18
39405;BME280;25121;51.090;17.038;2023-04-06T04:47:29;100616.25;;;1.37;66.06
39405;BME280;25121;51.090;17.038;2023-04-06T04:48:51;100624.81;;;1.40;66.05
39405;BME280;25121;51.090;17.038;2023-04-06T04:50:24;100623.75;;;1.43;65.96
39405;BME280;25121;51.090;17.038;2023-04-06T04:51:50;100628.75;;;1.47;65.85
39405;BME280;25121;51.090;17.038;2023-04-06T04:53:39;100625.78;;;1.52;65.96
39405;BME280;25121;51.090;17.038;2023-04-06T04:55:10;100619.31;;;1.56;65.75
39405;BME280;25121;51.090;17.038;2023-04-06T04:56:33;100631.31;;;1.62;65.67
39405;BME280;25121;51.090;17.038;2023-04-06T04:58:07;100634.50;;;1.67;65.44
39405;BME280;25121;51.090;17.038;2023-04-06T04:59:47;100621.13;;;1.68;65.53
39405;BME280;25121;51.090;17.038;2023-04-06T05:01:15;100631.19;;;1.76;65.52
39405;BME280;25121;51.090;17.038;2023-04-06T05:02:38;100631.09;;;1.78;65.51
39405;BME280;25121;51.090;17.038;2023-04-06T05:04:06;100634.19;;;1.84;65.26
39405;BME280;25121;51.090;17.038;2023-04-06T05:05:29;100627.91;;;1.85;65.32
39405;BME280;25121;51.090;17.038;2023-04-06T05:07:02;100626.84;;;1.88;65.25
39405;BME280;25121;51.090;17.038;2023-04-06T05:08:25;100626.53;;;1.92;65.07
39405;BME280;25121;51.090;17.038;2023-04-06T05:09:47;100623.06;;;1.92;64.93
39405;BME280;25121;51.090;17.038;2023-04-06T05:11:13;100631.41;;;1.99;64.82
39405;BME280;25121;51.090;17.038;2023-04-06T05:12:45;100630.25;;;2.03;64.86
39405;BME280;25121;51.090;17.038;2023-04-06T05:14:08;100627.28;;;2.07;64.69
39405;BME280;25121;51.090;17.038;2023-04-06T05:15:33;100630.44;;;2.12;64.84
39405;BME280;25121;51.090;17.038;2023-04-06T05:17:07;100628.88;;;2.10;64.82
39405;BME280;25121;51.090;17.038;2023-04-06T05:18:35;100620.06;;;2.09;64.56
39405;BME280;25121;51.090;17.038;2023-04-06T05:19:59;100624.59;;;2.20;64.62
39405;BME280;25121;51.090;17.038;2023-04-06T05:21:31;100635.50;;;2.28;64.27
39405;BME280;25121;51.090;17.038;2023-04-06T05:23:07;100628.28;;;2.30;64.13
39405;BME280;25121;51.090;17.038;2023-04-06T05:24:30;100629.03;;;2.32;64.25
39405;BME280;25121;51.090;17.038;2023-04-06T05:25:51;100635.94;;;2.35;64.11
39405;BME280;25121;51.090;17.038;2023-04-06T05:27:16;100626.28;;;2.34;64.00
39405;BME280;25121;51.090;17.038;2023-04-06T05:28:37;100633.91;;;2.39;63.72
39405;BME280;25121;51.090;17.038;2023-04-06T05:30:00;100650.88;;;2.49;63.62
39405;BME280;25121;51.090;17.038;2023-04-06T05:31:28;100641.84;;;2.51;63.73
39405;BME280;25121;51.090;17.038;2023-04-06T05:32:53;100635.47;;;2.54;63.63
39405;BME280;25121;51.090;17.038;2023-04-06T05:34:19;100631.53;;;2.59;63.55
39405;BME280;25121;51.090;17.038;2023-04-06T05:35:46;100624.41;;;2.60;63.37
39405;BME280;25121;51.090;17.038;2023-04-06T05:37:08;100631.81;;;2.68;63.28
39405;BME280;25121;51.090;17.038;2023-04-06T05:38:39;100638.13;;;2.78;63.10
39405;BME280;25121;51.090;17.038;2023-04-06T05:40:24;100633.13;;;2.86;63.04
39405;BME280;25121;51.090;17.038;2023-04-06T05:41:49;100638.72;;;2.94;62.77
39405;BME280;25121;51.090;17.038;2023-04-06T05:43:31;100643.13;;;3.07;62.59
39405;BME280;25121;51.090;17.038;2023-04-06T05:46:46;100648.38;;;3.19;62.20
39405;BME280;25121;51.090;17.038;2023-04-06T05:48:10;100636.44;;;3.25;62.14
39405;BME280;25121;51.090;17.038;2023-04-06T05:49:32;100644.91;;;3.30;62.11
39405;BME280;25121;51.090;17.038;2023-04-06T05:51:16;100631.41;;;3.33;61.87
39405;BME280;25121;51.090;17.038;2023-04-06T05:52:42;100631.03;;;3.38;61.68
39405;BME280;25121;51.090;17.038;2023-04-06T05:54:10;100638.22;;;3.49;61.61
39405;BME280;25121;51.090;17.038;2023-04-06T05:55:33;100628.44;;;3.49;61.30
39405;BME280;25121;51.090;17.038;2023-04-06T05:57:03;100640.69;;;3.63;61.15
39405;BME280;25121;51.090;17.038;2023-04-06T05:58:28;100624.50;;;3.66;61.02
39405;BME280;25121;51.090;17.038;2023-04-06T05:59:53;100632.59;;;3.76;61.17
39405;BME280;25121;51.090;17.038;2023-04-06T06:01:16;100635.84;;;3.79;60.76
39405;BME280;25121;51.090;17.038;2023-04-06T06:02:41;100627.28;;;3.87;60.58
39405;BME280;25121;51.090;17.038;2023-04-06T06:04:10;100629.63;;;4.03;60.37
39405;BME280;25121;51.090;17.038;2023-04-06T06:05:34;100629.59;;;4.14;60.18
39405;BME280;25121;51.090;17.038;2023-04-06T06:07:02;100623.47;;;4.25;60.20
39405;BME280;25121;51.090;17.038;2023-04-06T06:08:30;100630.94;;;4.42;59.88
39405;BME280;25121;51.090;17.038;2023-04-06T06:09:56;100632.38;;;4.58;59.56
39405;BME280;25121;51.090;17.038;2023-04-06T06:11:23;100640.94;;;4.72;59.20
39405;BME280;25121;51.090;17.038;2023-04-06T06:12:48;100638.59;;;4.79;58.68
39405;BME280;25121;51.090;17.038;2023-04-06T06:14:14;100635.09;;;4.90;58.26
39405;BME280;25121;51.090;17.038;2023-04-06T06:15:37;100633.94;;;5.04;58.22
39405;BME280;25121;51.090;17.038;2023-04-06T06:17:02;100639.09;;;5.16;57.67
39405;BME280;25121;51.090;17.038;2023-04-06T06:18:26;100633.84;;;5.26;57.33
39405;BME280;25121;51.090;17.038;2023-04-06T06:19:49;100633.94;;;5.36;57.06
39405;BME280;25121;51.090;17.038;2023-04-06T06:21:10;100643.81;;;5.45;56.89
39405;BME280;25121;51.090;17.038;2023-04-06T06:22:33;100637.59;;;5.56;56.61
39405;BME280;25121;51.090;17.038;2023-04-06T06:23:55;100645.66;;;5.66;56.26
39405;BME280;25121;51.090;17.038;2023-04-06T06:25:20;100643.06;;;5.75;56.14
39405;BME280;25121;51.090;17.038;2023-04-06T06:26:45;100632.84;;;5.80;55.97
39405;BME280;25121;51.090;17.038;2023-04-06T06:28:11;100622.50;;;5.87;55.83
39405;BME280;25121;51.090;17.038;2023-04-06T06:29:33;100633.53;;;6.03;55.69
39405;BME280;25121;51.090;17.038;2023-04-06T06:30:54;100642.19;;;6.17;55.34
39405;BME280;25121;51.090;17.038;2023-04-06T06:32:19;100636.75;;;6.28;55.16
39405;BME280;25121;51.090;17.038;2023-04-06T06:33:46;100636.66;;;6.39;54.83
39405;BME280;25121;51.090;17.038;2023-04-06T06:35:12;100634.75;;;6.51;54.54
39405;BME280;25121;51.090;17.038;2023-04-06T06:36:35;100627.00;;;6.58;53.95
39405;BME280;25121;51.090;17.038;2023-04-06T06:38:00;100631.28;;;6.70;53.96
39405;BME280;25121;51.090;17.038;2023-04-06T06:39:26;100639.19;;;6.81;53.51
39405;BME280;25121;51.090;17.038;2023-04-06T06:40:49;100633.00;;;6.90;53.30
39405;BME280;25121;51.090;17.038;2023-04-06T06:42:12;100633.88;;;7.01;53.07
39405;BME280;25121;51.090;17.038;2023-04-06T06:43:53;100634.97;;;7.08;52.61
39405;BME280;25121;51.090;17.038;2023-04-06T06:45:20;100625.84;;;7.20;52.27
39405;BME280;25121;51.090;17.038;2023-04-06T06:46:58;100618.25;;;7.25;52.48
39405;BME280;25121;51.090;17.038;2023-04-06T06:48:23;100636.97;;;7.45;52.13
39405;BME280;25121;51.090;17.038;2023-04-06T06:49:49;100631.75;;;7.53;51.86
39405;BME280;25121;51.090;17.038;2023-04-06T06:51:17;100631.28;;;7.67;51.67
39405;BME280;25121;51.090;17.038;2023-04-06T06:52:51;100630.16;;;7.80;51.40
39405;BME280;25121;51.090;17.038;2023-04-06T06:54:38;100627.03;;;7.94;51.01
39405;BME280;25121;51.090;17.038;2023-04-06T06:56:11;100620.94;;;8.02;50.84
39405;BME280;25121;51.090;17.038;2023-04-06T06:57:59;100634.81;;;8.25;50.42
39405;BME280;25121;51.090;17.038;2023-04-06T06:59:37;100621.81;;;8.39;50.10
39405;BME280;25121;51.090;17.038;2023-04-06T07:01:49;100621.31;;;8.54;50.15
39405;BME280;25121;51.090;17.038;2023-04-06T07:03:16;100617.31;;;8.68;49.74
39405;BME280;25121;51.090;17.038;2023-04-06T07:04:50;100619.69;;;8.89;49.29
39405;BME280;25121;51.090;17.038;2023-04-06T07:06:23;100617.97;;;8.97;48.95
39405;BME280;25121;51.090;17.038;2023-04-06T07:07:53;100607.84;;;9.09;48.69
39405;BME280;25121;51.090;17.038;2023-04-06T07:09:17;100618.56;;;9.27;48.43
39405;BME280;25121;51.090;17.038;2023-04-06T07:10:39;100626.75;;;9.43;48.12
39405;BME280;25121;51.090;17.038;2023-04-06T07:12:18;100625.75;;;9.62;47.77
39405;BME280;25121;51.090;17.038;2023-04-06T07:13:40;100615.59;;;9.74;47.20
39405;BME280;25121;51.090;17.038;2023-04-06T07:15:04;100627.25;;;9.91;47.00
39405;BME280;25121;51.090;17.038;2023-04-06T07:16:30;100630.91;;;10.08;46.48
39405;BME280;25121;51.090;17.038;2023-04-06T07:18:24;100610.34;;;10.25;46.24
39405;BME280;25121;51.090;17.038;2023-04-06T07:20:07;100621.94;;;10.60;45.91
39405;BME280;25121;51.090;17.038;2023-04-06T07:21:29;100626.09;;;10.88;45.24
39405;BME280;25121;51.090;17.038;2023-04-06T07:22:53;100624.78;;;11.17;44.95
39405;BME280;25121;51.090;17.038;2023-04-06T07:24:18;100626.66;;;11.49;44.12
39405;BME280;25121;51.090;17.038;2023-04-06T07:25:43;100621.59;;;11.79;43.46
39405;BME280;25121;51.090;17.038;2023-04-06T07:27:05;100623.88;;;12.15;42.52
39405;BME280;25121;51.090;17.038;2023-04-06T07:28:27;100619.75;;;12.43;41.93
39405;BME280;25121;51.090;17.038;2023-04-06T07:29:50;100625.19;;;12.75;41.56
39405;BME280;25121;51.090;17.038;2023-04-06T07:31:21;100618.09;;;13.05;40.70
39405;BME280;25121;51.090;17.038;2023-04-06T07:32:44;100624.25;;;13.45;40.36
39405;BME280;25121;51.090;17.038;2023-04-06T07:34:06;100626.28;;;13.81;39.81
39405;BME280;25121;51.090;17.038;2023-04-06T07:35:29;100629.31;;;14.15;39.05
39405;BME280;25121;51.090;17.038;2023-04-06T07:37:00;100633.25;;;14.42;39.49
39405;BME280;25121;51.090;17.038;2023-04-06T07:38:29;100632.50;;;14.78;38.61
39405;BME280;25121;51.090;17.038;2023-04-06T07:39:57;100631.19;;;15.11;37.82
39405;BME280;25121;51.090;17.038;2023-04-06T07:41:40;100622.16;;;15.46;37.39
39405;BME280;25121;51.090;17.038;2023-04-06T07:43:07;100621.25;;;15.82;36.77
39405;BME280;25121;51.090;17.038;2023-04-06T07:44:29;100614.38;;;16.14;36.03
39405;BME280;25121;51.090;17.038;2023-04-06T07:45:52;100627.72;;;16.51;35.26
39405;BME280;25121;51.090;17.038;2023-04-06T07:47:15;100621.63;;;16.84;34.65